Time,TemperatureF,DewpointF,PressureIn,WindDirection,WindDirectionDegrees,WindSpeedMPH,WindSpeedGustMPH,Humidity,HourlyPrecipIn,Conditions,Clouds,dailyrainin,SoftwareType,DateUTC
2013-08-16 00:01:00,56.9,54.0,30.19,SE,146,0.0,0.0,90,0.00,CLR,,0.00,WeatherDisplay:10.37,2013-08-16 04:01:00,
2013-08-16 00:02:00,56.9,54.0,30.19,SE,145,0.0,0.0,90,0.00,CLR,,0.00,WeatherDisplay:10.37,2013-08-16 04:02:00,
2013-08-16 00:03:00,56.8,53.9,30.19,SE,146,0.0,0.0,90,0.00,CLR,,0.00,WeatherDisplay:10.37,2013-08-16 04:03:00,
2013-08-16 00:08:00,56.7,53.8,30.19,SE,145,0.0,0.0,90,0.00,CLR,,0.00,WeatherDisplay:10.37,2013-08-16 04:08:00,
2013-08-16 00:13:00,56.6,53.7,30.19,SE,146,0.0,0.0,90,0.00,CLR,,0.00,WeatherDisplay:10.37,2013-08-16 04:13:00,
2013-08-16 00:18:00,56.5,53.6,30.19,SE,146,0.0,0.0,90,0.00,CLR,,0.00,WeatherDisplay:10.37,2013-08-16 04:18:00,
2013-08-16 00:23:00,56.3,53.4,30.19,SE,145,0.0,0.0,90,0.00,CLR,,0.00,WeatherDisplay:10.37,2013-08-16 04:23:00,
2013-08-16 00:28:00,56.3,53.4,30.19,SE,145,0.0,0.0,90,0.00,CLR,,0.00,WeatherDisplay:10.37,2013-08-16 04:28:00,
2013-08-16 00:33:00,56.2,53.3,30.19,SE,146,0.0,0.0,90,0.00,CLR,,0.00,WeatherDisplay:10.37,2013-08-16 04:33:00,
2013-08-16 00:38:00,56.2,53.6,30.19,SE,145,0.0,0.0,91,0.00,CLR,,0.00,WeatherDisplay:10.37,2013-08-16 04:38:00,
2013-08-16 00:43:00,56.1,53.5,30.19,SE,145,0.0,0.0,91,0.00,CLR,,0.00,WeatherDisplay:10.37,2013-08-16 04:43:00,
2013-08-16 00:48:00,56.0,53.4,30.19,SE,145,0.0,0.0,91,0.00,CLR,,0.00,WeatherDisplay:10.37,2013-08-16 04:48:00,
2013-08-16 00:53:00,55.9,53.3,30.19,SE,145,0.0,0.0,91,0.00,CLR,,0.00,WeatherDisplay:10.37,2013-08-16 04:53:00,
2013-08-16 00:58:00,55.9,53.3,30.19,SE,145,0.0,0.0,91,0.00,CLR,,0.00,WeatherDisplay:10.37,2013-08-16 04:58:00,
2013-08-16 01:03:00,55.9,53.3,30.19,SE,146,0.0,0.0,91,0.00,CLR,,0.00,WeatherDisplay:10.37,2013-08-16 05:03:00,
2013-08-16 01:08:00,55.8,53.2,30.19,SE,146,0.0,0.0,91,0.00,CLR,,0.00,WeatherDisplay:10.37,2013-08-16 05:08:00,
2013-08-16 01:13:00,55.6,53.0,30.19,SE,145,0.0,0.0,91,0.00,CLR,,0.00,WeatherDisplay:10.37,2013-08-16 05:13:00,
2013-08-16 01:19:00,55.5,52.9,30.19,SW,231,0.2,1.2,91,0.00,CLR,,0.00,WeatherDisplay:10.37,2013-08-16 05:19:00,
2013-08-16 01:24:00,55.4,52.8,30.19,SW,231,0.0,0.0,91,0.00,CLR,,0.00,WeatherDisplay:10.37,2013-08-16 05:24:00,
2013-08-16 01:29:00,55.4,52.8,30.19,SSW,206,0.0,0.0,91,0.00,CLR,,0.00,WeatherDisplay:10.37,2013-08-16 05:29:00,
2013-08-16 01:34:00,55.5,52.9,30.19,SSW,205,0.0,0.0,91,0.00,CLR,,0.00,WeatherDisplay:10.37,2013-08-16 05:34:00,
2013-08-16 01:39:00,55.5,52.6,30.19,SSW,205,0.0,0.0,90,0.00,CLR,,0.00,WeatherDisplay:10.37,2013-08-16 05:39:00,
2013-08-16 01:44:00,55.4,52.5,30.18,SSW,205,0.0,0.0,90,0.00,CLR,,0.00,WeatherDisplay:10.37,2013-08-16 05:44:00,
2013-08-16 01:49:00,55.4,52.8,30.18,SSW,205,0.0,0.0,91,0.00,CLR,,0.00,WeatherDisplay:10.37,2013-08-16 05:49:00,
2013-08-16 01:54:00,55.3,52.7,30.18,SSW,205,0.0,0.0,91,0.00,CLR,,0.00,WeatherDisplay:10.37,2013-08-16 05:54:00,
2013-08-16 01:59:00,55.2,52.6,30.18,SSW,205,0.0,0.0,91,0.00,CLR,,0.00,WeatherDisplay:10.37,2013-08-16 05:59:00,
2013-08-16 02:04:00,55.0,52.4,30.18,SSW,206,0.0,0.0,91,0.00,CLR,,0.00,WeatherDisplay:10.37,2013-08-16 06:04:00,
2013-08-16 02:09:00,54.9,52.3,30.18,SSW,205,0.0,0.0,91,0.00,CLR,,0.00,WeatherDisplay:10.37,2013-08-16 06:09:00,
2013-08-16 02:14:00,54.7,52.1,30.18,SSW,205,0.0,0.0,91,0.00,CLR,,0.00,WeatherDisplay:10.37,2013-08-16 06:14:00,
2013-08-16 02:19:00,54.5,51.9,30.18,SSW,205,0.0,0.0,91,0.00,CLR,,0.00,WeatherDisplay:10.37,2013-08-16 06:19:00,
2013-08-16 02:24:00,54.4,52.1,30.18,SSW,205,0.0,0.0,92,0.00,CLR,,0.00,WeatherDisplay:10.37,2013-08-16 06:24:00,
2013-08-16 02:29:00,54.4,52.1,30.18,SSE,148,0.0,0.0,92,0.00,CLR,,0.00,WeatherDisplay:10.37,2013-08-16 06:29:00,
2013-08-16 02:34:00,54.4,52.1,30.18,SSE,148,0.0,0.0,92,0.00,CLR,,0.00,WeatherDisplay:10.37,2013-08-16 06:34:00,
2013-08-16 02:39:00,54.5,52.2,30.18,SSE,148,0.0,0.0,92,0.00,CLR,,0.00,WeatherDisplay:10.37,2013-08-16 06:39:00,
2013-08-16 02:44:00,54.4,51.8,30.17,SSE,148,0.0,0.0,91,0.00,CLR,,0.00,WeatherDisplay:10.37,2013-08-16 06:44:00,
2013-08-16 02:49:00,54.3,52.0,30.18,SSE,148,0.0,0.0,92,0.00,CLR,,0.00,WeatherDisplay:10.37,2013-08-16 06:49:00,
2013-08-16 02:54:00,54.2,51.9,30.17,SSE,148,0.0,0.0,92,0.00,CLR,,0.00,WeatherDisplay:10.37,2013-08-16 06:54:00,
2013-08-16 02:59:00,54.1,51.8,30.17,SSE,147,0.0,0.0,92,0.00,CLR,,0.00,WeatherDisplay:10.37,2013-08-16 06:59:00,
2013-08-16 03:04:00,54.0,51.7,30.17,SSE,148,0.0,0.0,92,0.00,CLR,,0.00,WeatherDisplay:10.37,2013-08-16 07:04:00,
2013-08-16 03:09:00,54.0,51.7,30.17,SSE,148,0.0,0.0,92,0.00,CLR,,0.00,WeatherDisplay:10.37,2013-08-16 07:09:00,
2013-08-16 03:14:00,53.9,51.6,30.17,SSE,148,0.0,0.0,92,0.00,CLR,,0.00,WeatherDisplay:10.37,2013-08-16 07:14:00,
2013-08-16 03:19:00,53.8,51.5,30.17,SSE,148,0.0,0.0,92,0.00,CLR,,0.00,WeatherDisplay:10.37,2013-08-16 07:19:00,
2013-08-16 03:24:00,53.7,51.4,30.17,SSE,148,0.0,0.0,92,0.00,CLR,,0.00,WeatherDisplay:10.37,2013-08-16 07:24:00,
2013-08-16 03:29:00,53.6,51.3,30.17,SSE,148,0.0,0.0,92,0.00,CLR,,0.00,WeatherDisplay:10.37,2013-08-16 07:29:00,
2013-08-16 03:34:00,53.5,51.2,30.17,SSE,148,0.0,0.0,92,0.00,CLR,,0.00,WeatherDisplay:10.37,2013-08-16 07:34:00,
2013-08-16 03:39:00,53.4,51.1,30.18,SSE,148,0.0,0.0,92,0.00,CLR,,0.00,WeatherDisplay:10.37,2013-08-16 07:39:00,
2013-08-16 03:44:00,53.4,51.1,30.17,SSE,148,0.0,0.0,92,0.00,CLR,,0.00,WeatherDisplay:10.37,2013-08-16 07:44:00,
2013-08-16 03:49:00,53.3,51.0,30.17,SSE,148,0.0,0.0,92,0.00,CLR,,0.00,WeatherDisplay:10.37,2013-08-16 07:49:00,
2013-08-16 03:54:00,53.2,50.9,30.17,SSE,148,0.0,0.0,92,0.00,CLR,,0.00,WeatherDisplay:10.37,2013-08-16 07:54:00,
2013-08-16 03:59:00,53.2,51.2,30.17,SSE,148,0.0,0.0,93,0.00,CLR,,0.00,WeatherDisplay:10.37,2013-08-16 07:59:00,
2013-08-16 04:04:00,53.1,50.8,30.17,SSE,148,0.0,0.0,92,0.00,CLR,,0.00,WeatherDisplay:10.37,2013-08-16 08:04:00,
2013-08-16 04:09:00,53.0,51.0,30.17,SSE,148,0.0,0.0,93,0.00,CLR,,0.00,WeatherDisplay:10.37,2013-08-16 08:09:00,
2013-08-16 04:14:00,52.9,50.6,30.17,SSE,148,0.0,0.0,92,0.00,CLR,,0.00,WeatherDisplay:10.37,2013-08-16 08:14:00,
2013-08-16 04:19:00,52.7,50.4,30.17,SSE,148,0.0,0.0,92,0.00,CLR,,0.00,WeatherDisplay:10.37,2013-08-16 08:19:00,
2013-08-16 04:24:00,52.6,50.6,30.17,SSE,148,0.0,0.0,93,0.00,CLR,,0.00,WeatherDisplay:10.37,2013-08-16 08:24:00,
2013-08-16 04:29:00,52.6,50.6,30.17,SSE,148,0.0,0.0,93,0.00,CLR,,0.00,WeatherDisplay:10.37,2013-08-16 08:29:00,
2013-08-16 04:34:00,52.5,50.5,30.17,SSE,148,0.0,0.0,93,0.00,CLR,,0.00,WeatherDisplay:10.37,2013-08-16 08:34:00,
2013-08-16 04:39:00,52.5,50.5,30.17,SSE,150,0.0,0.0,93,0.00,CLR,,0.00,WeatherDisplay:10.37,2013-08-16 08:39:00,
2013-08-16 04:44:00,52.5,50.5,30.17,SE,145,0.0,0.0,93,0.00,CLR,,0.00,WeatherDisplay:10.37,2013-08-16 08:44:00,
2013-08-16 04:49:00,52.5,50.5,30.17,SE,145,0.0,0.0,93,0.00,CLR,,0.00,WeatherDisplay:10.37,2013-08-16 08:49:00,
2013-08-16 04:54:00,52.4,50.4,30.17,SE,145,0.0,0.0,93,0.00,CLR,,0.00,WeatherDisplay:10.37,2013-08-16 08:54:00,
2013-08-16 04:59:00,52.3,50.3,30.17,SE,145,0.0,0.0,93,0.00,CLR,,0.00,WeatherDisplay:10.37,2013-08-16 08:59:00,
2013-08-16 05:04:00,52.3,50.3,30.17,SE,146,0.0,0.0,93,0.00,CLR,,0.00,WeatherDisplay:10.37,2013-08-16 09:04:00,
2013-08-16 05:09:00,52.2,50.2,30.17,SE,145,0.0,0.0,93,0.00,CLR,,0.00,WeatherDisplay:10.37,2013-08-16 09:09:00,
2013-08-16 05:14:00,52.1,50.1,30.18,SE,145,0.0,0.0,93,0.00,CLR,,0.00,WeatherDisplay:10.37,2013-08-16 09:14:00,
2013-08-16 05:19:00,52.1,50.1,30.18,SE,145,0.0,0.0,93,0.00,CLR,,0.00,WeatherDisplay:10.37,2013-08-16 09:19:00,
2013-08-16 05:24:00,52.1,50.1,30.18,SE,145,0.0,0.0,93,0.00,CLR,,0.00,WeatherDisplay:10.37,2013-08-16 09:24:00,
2013-08-16 05:29:00,52.0,50.0,30.18,SE,145,0.0,0.0,93,0.00,CLR,,0.00,WeatherDisplay:10.37,2013-08-16 09:29:00,
2013-08-16 05:34:00,51.9,49.9,30.18,SE,146,0.0,0.0,93,0.00,CLR,,0.00,WeatherDisplay:10.37,2013-08-16 09:34:00,
2013-08-16 05:39:00,51.8,49.8,30.18,SE,145,0.0,0.0,93,0.00,CLR,,0.00,WeatherDisplay:10.37,2013-08-16 09:39:00,
2013-08-16 05:44:00,51.8,49.8,30.18,SE,145,0.0,0.0,93,0.00,CLR,,0.00,WeatherDisplay:10.37,2013-08-16 09:44:00,
2013-08-16 05:49:00,51.8,49.8,30.18,SE,146,0.0,0.0,93,0.00,CLR,,0.00,WeatherDisplay:10.37,2013-08-16 09:49:00,
2013-08-16 05:54:00,51.7,49.7,30.18,SE,146,0.0,0.0,93,0.00,CLR,,0.00,WeatherDisplay:10.37,2013-08-16 09:54:00,
2013-08-16 05:59:00,51.5,49.5,30.18,SE,145,0.0,0.0,93,0.00,CLR,,0.00,WeatherDisplay:10.37,2013-08-16 09:59:00,
2013-08-16 06:04:00,51.3,49.3,30.18,SE,145,0.0,0.0,93,0.00,CLR,,0.00,WeatherDisplay:10.37,2013-08-16 10:04:00,
2013-08-16 06:09:00,51.2,49.2,30.18,SE,145,0.0,0.0,93,0.00,CLR,,0.00,WeatherDisplay:10.37,2013-08-16 10:09:00,
2013-08-16 06:14:00,51.1,49.1,30.18,SE,146,0.0,0.0,93,0.00,CLR,,0.00,WeatherDisplay:10.37,2013-08-16 10:14:00,
2013-08-16 06:19:00,51.0,49.0,30.18,SE,145,0.0,0.0,93,0.00,CLR,,0.00,WeatherDisplay:10.37,2013-08-16 10:19:00,
2013-08-16 06:24:00,50.9,48.9,30.18,SE,145,0.0,0.0,93,0.00,CLR,,0.00,WeatherDisplay:10.37,2013-08-16 10:24:00,
2013-08-16 06:29:00,50.9,49.2,30.18,SE,146,0.0,0.0,94,0.00,CLR,,0.00,WeatherDisplay:10.37,2013-08-16 10:29:00,
2013-08-16 06:34:00,50.9,49.2,30.19,SE,145,0.0,0.0,94,0.00,CLR,,0.00,WeatherDisplay:10.37,2013-08-16 10:34:00,
2013-08-16 06:39:00,50.9,49.2,30.19,SE,146,0.0,0.0,94,0.00,CLR,,0.00,WeatherDisplay:10.37,2013-08-16 10:39:00,
2013-08-16 06:44:00,50.8,49.1,30.19,SE,146,0.0,0.0,94,0.00,CLR,,0.00,WeatherDisplay:10.37,2013-08-16 10:44:00,
2013-08-16 06:49:00,50.7,49.0,30.19,SE,146,0.0,0.0,94,0.00,CLR,,0.00,WeatherDisplay:10.37,2013-08-16 10:49:00,
2013-08-16 06:54:00,50.8,49.1,30.19,SE,145,0.0,0.0,94,0.00,CLR,,0.00,WeatherDisplay:10.37,2013-08-16 10:54:00,
2013-08-16 06:59:00,50.7,49.0,30.20,SE,145,0.0,0.0,94,0.00,CLR,,0.00,WeatherDisplay:10.37,2013-08-16 10:59:00,
2013-08-16 07:04:00,50.7,49.0,30.20,SE,145,0.0,0.0,94,0.00,CLR,,0.00,WeatherDisplay:10.37,2013-08-16 11:04:00,
2013-08-16 07:09:00,50.8,49.1,30.20,SE,145,0.0,0.0,94,0.00,CLR,,0.00,WeatherDisplay:10.37,2013-08-16 11:09:00,
2013-08-16 07:14:00,50.8,49.1,30.20,SE,145,0.0,0.0,94,0.00,CLR,,0.00,WeatherDisplay:10.37,2013-08-16 11:14:00,
2013-08-16 07:19:00,50.9,49.2,30.20,SE,145,0.0,0.0,94,0.00,CLR,,0.00,WeatherDisplay:10.37,2013-08-16 11:19:00,
2013-08-16 07:24:00,51.0,49.3,30.20,SE,146,0.0,0.0,94,0.00,CLR,,0.00,WeatherDisplay:10.37,2013-08-16 11:24:00,
2013-08-16 07:29:00,51.1,49.4,30.20,SE,146,0.0,0.0,94,0.00,CLR,,0.00,WeatherDisplay:10.37,2013-08-16 11:29:00,
2013-08-16 07:34:00,51.1,49.4,30.20,SE,146,0.0,0.0,94,0.00,CLR,,0.00,WeatherDisplay:10.37,2013-08-16 11:34:00,
2013-08-16 07:39:00,51.3,49.6,30.20,SE,146,0.0,0.0,94,0.00,CLR,,0.00,WeatherDisplay:10.37,2013-08-16 11:39:00,
2013-08-16 07:44:00,51.5,50.1,30.20,SE,145,0.0,0.0,95,0.00,CLR,,0.00,WeatherDisplay:10.37,2013-08-16 11:44:00,
2013-08-16 07:49:00,51.7,50.3,30.20,SE,145,0.0,0.0,95,0.00,CLR,,0.00,WeatherDisplay:10.37,2013-08-16 11:49:00,
2013-08-16 07:54:00,51.8,50.4,30.20,SE,145,0.0,0.0,95,0.00,CLR,,0.00,WeatherDisplay:10.37,2013-08-16 11:54:00,
2013-08-16 07:59:00,52.0,50.6,30.20,SE,145,0.0,0.0,95,0.00,CLR,,0.00,WeatherDisplay:10.37,2013-08-16 11:59:00,
2013-08-16 08:04:00,52.3,50.9,30.21,SE,146,0.0,0.0,95,0.00,CLR,,0.00,WeatherDisplay:10.37,2013-08-16 12:04:00,
2013-08-16 08:09:00,52.6,51.2,30.20,SE,145,0.0,0.0,95,0.00,CLR,,0.00,WeatherDisplay:10.37,2013-08-16 12:09:00,
2013-08-16 08:14:00,52.9,51.2,30.20,SE,145,0.0,0.0,94,0.00,CLR,,0.00,WeatherDisplay:10.37,2013-08-16 12:14:00,
2013-08-16 08:19:00,53.2,51.5,30.20,SE,146,0.0,0.0,94,0.00,CLR,,0.00,WeatherDisplay:10.37,2013-08-16 12:19:00,
2013-08-16 08:24:00,53.4,51.7,30.21,SE,145,0.0,0.0,94,0.00,CLR,,0.00,WeatherDisplay:10.37,2013-08-16 12:24:00,
2013-08-16 08:29:00,53.7,52.0,30.21,SE,145,0.0,0.0,94,0.00,CLR,,0.00,WeatherDisplay:10.37,2013-08-16 12:29:00,
2013-08-16 08:34:00,54.0,52.3,30.21,SE,145,0.0,0.0,94,0.00,CLR,,0.00,WeatherDisplay:10.37,2013-08-16 12:34:00,
2013-08-16 08:39:00,54.4,52.4,30.21,SE,145,0.0,0.0,93,0.00,CLR,,0.00,WeatherDisplay:10.37,2013-08-16 12:39:00,
2013-08-16 08:44:00,54.8,52.8,30.21,SE,146,0.0,0.0,93,0.00,CLR,,0.00,WeatherDisplay:10.37,2013-08-16 12:44:00,
2013-08-16 08:49:00,55.2,53.2,30.21,SE,145,0.0,0.0,93,0.00,CLR,,0.00,WeatherDisplay:10.37,2013-08-16 12:49:00,
2013-08-16 08:54:00,55.7,53.4,30.21,SE,146,0.0,0.0,92,0.00,CLR,,0.00,WeatherDisplay:10.37,2013-08-16 12:54:00,
2013-08-16 08:59:00,56.1,53.8,30.22,SE,146,0.0,0.0,92,0.00,CLR,,0.00,WeatherDisplay:10.37,2013-08-16 12:59:00,
2013-08-16 09:04:00,56.6,54.3,30.22,South,169,0.0,0.0,92,0.00,CLR,,0.00,WeatherDisplay:10.37,2013-08-16 13:04:00,
2013-08-16 09:09:00,57.1,54.5,30.22,South,169,0.0,0.0,91,0.00,CLR,,0.00,WeatherDisplay:10.37,2013-08-16 13:09:00,
2013-08-16 09:14:00,57.4,54.8,30.22,South,169,0.0,0.0,91,0.00,CLR,,0.00,WeatherDisplay:10.37,2013-08-16 13:14:00,
2013-08-16 09:19:00,57.7,54.8,30.22,SSW,204,0.0,0.0,90,0.00,CLR,,0.00,WeatherDisplay:10.37,2013-08-16 13:19:00,
2013-08-16 09:24:00,58.2,55.3,30.21,SSW,203,0.0,0.0,90,0.00,CLR,,0.00,WeatherDisplay:10.37,2013-08-16 13:24:00,
2013-08-16 09:29:00,58.6,55.4,30.21,SSW,204,0.0,0.0,89,0.00,CLR,,0.00,WeatherDisplay:10.37,2013-08-16 13:29:00,
2013-08-16 09:34:00,58.9,55.7,30.21,SSW,204,0.0,0.0,89,0.00,CLR,,0.00,WeatherDisplay:10.37,2013-08-16 13:34:00,
2013-08-16 09:39:00,59.2,55.3,30.21,SSW,208,0.2,1.2,87,0.00,CLR,,0.00,WeatherDisplay:10.37,2013-08-16 13:39:00,
2013-08-16 09:44:00,59.6,55.4,30.21,SSW,211,0.0,0.0,86,0.00,CLR,,0.00,WeatherDisplay:10.37,2013-08-16 13:44:00,
2013-08-16 09:49:00,60.0,55.5,30.21,SSW,194,0.0,0.0,85,0.00,CLR,,0.00,WeatherDisplay:10.37,2013-08-16 13:49:00,
2013-08-16 09:54:00,60.4,56.2,30.21,SSW,194,0.0,0.0,86,0.00,CLR,,0.00,WeatherDisplay:10.37,2013-08-16 13:54:00,
2013-08-16 09:59:00,60.7,56.2,30.21,SSW,194,0.0,0.0,85,0.00,CLR,,0.00,WeatherDisplay:10.37,2013-08-16 13:59:00,
2013-08-16 10:04:00,61.2,56.3,30.21,West,270,0.0,0.0,84,0.00,CLR,,0.00,WeatherDisplay:10.37,2013-08-16 14:04:00,
2013-08-16 10:09:00,61.6,56.7,30.21,West,269,0.0,0.0,84,0.00,CLR,,0.00,WeatherDisplay:10.37,2013-08-16 14:09:00,
2013-08-16 10:14:00,61.9,56.0,30.21,West,269,0.0,0.0,81,0.00,CLR,,0.00,WeatherDisplay:10.37,2013-08-16 14:14:00,
2013-08-16 10:19:00,62.3,56.4,30.21,SE,144,0.0,0.0,81,0.00,CLR,,0.00,WeatherDisplay:10.37,2013-08-16 14:19:00,
2013-08-16 10:24:00,62.6,56.3,30.20,SE,143,0.0,0.0,80,0.00,CLR,,0.00,WeatherDisplay:10.37,2013-08-16 14:24:00,
2013-08-16 10:29:00,63.0,56.7,30.20,SW,229,0.0,0.0,80,0.00,CLR,,0.00,WeatherDisplay:10.37,2013-08-16 14:29:00,
2013-08-16 10:34:00,63.5,56.5,30.20,NW,305,0.0,0.0,78,0.00,CLR,,0.00,WeatherDisplay:10.37,2013-08-16 14:34:00,
2013-08-16 10:39:00,63.8,55.7,30.20,SSW,198,0.0,0.0,75,0.00,CLR,,0.00,WeatherDisplay:10.37,2013-08-16 14:39:00,
2013-08-16 10:44:00,64.1,55.6,30.20,WSW,246,0.0,1.2,74,0.00,CLR,,0.00,WeatherDisplay:10.37,2013-08-16 14:44:00,
2013-08-16 10:49:00,64.4,55.9,30.20,WSW,243,0.0,1.0,74,0.00,CLR,,0.00,WeatherDisplay:10.37,2013-08-16 14:49:00,
2013-08-16 10:54:00,64.7,55.5,30.20,WSW,245,0.8,1.2,72,0.00,CLR,,0.00,WeatherDisplay:10.37,2013-08-16 14:54:00,
2013-08-16 10:59:00,64.8,56.3,30.20,West,264,0.0,1.0,74,0.00,CLR,,0.00,WeatherDisplay:10.37,2013-08-16 14:59:00,
2013-08-16 11:04:00,65.3,56.0,30.20,SW,222,0.4,2.3,72,0.00,CLR,,0.00,WeatherDisplay:10.37,2013-08-16 15:04:00,
2013-08-16 11:09:00,65.7,55.6,30.21,SW,232,0.0,0.0,70,0.00,CLR,,0.00,WeatherDisplay:10.37,2013-08-16 15:09:00,
2013-08-16 11:14:00,66.0,55.5,30.21,SW,233,1.3,2.3,69,0.00,CLR,,0.00,WeatherDisplay:10.37,2013-08-16 15:14:00,
2013-08-16 11:19:00,66.3,56.2,30.21,SW,215,0.2,1.2,70,0.00,CLR,,0.00,WeatherDisplay:10.37,2013-08-16 15:19:00,
2013-08-16 11:24:00,66.4,55.9,30.22,WSW,249,0.0,0.0,69,0.00,CLR,,0.00,WeatherDisplay:10.37,2013-08-16 15:24:00,
2013-08-16 11:29:00,66.7,56.6,30.22,WSW,246,0.0,0.0,70,0.00,CLR,,0.00,WeatherDisplay:10.37,2013-08-16 15:29:00,
2013-08-16 11:34:00,67.2,57.9,30.21,WSW,246,0.0,0.0,72,0.00,CLR,,0.00,WeatherDisplay:10.37,2013-08-16 15:34:00,
2013-08-16 11:39:00,67.8,57.7,30.21,WSW,246,0.2,1.2,70,0.00,CLR,,0.00,WeatherDisplay:10.37,2013-08-16 15:39:00,
2013-08-16 11:44:00,68.3,56.9,30.21,WNW,293,0.8,2.3,67,0.00,CLR,,0.00,WeatherDisplay:10.37,2013-08-16 15:44:00,
2013-08-16 11:49:00,69.3,59.1,30.21,SSW,212,0.1,1.0,70,0.00,CLR,,0.00,WeatherDisplay:10.37,2013-08-16 15:49:00,
2013-08-16 11:54:00,69.9,57.6,30.21,SW,222,0.5,2.0,65,0.00,CLR,,0.00,WeatherDisplay:10.37,2013-08-16 15:54:00,
2013-08-16 11:59:00,69.6,56.9,30.21,WSW,238,2.3,3.5,64,0.00,CLR,,0.00,WeatherDisplay:10.37,2013-08-16 15:59:00,
2013-08-16 12:04:00,69.6,57.3,30.21,WNW,293,0.4,2.0,65,0.00,CLR,,0.00,WeatherDisplay:10.37,2013-08-16 16:04:00,
2013-08-16 12:09:00,69.8,57.5,30.20,SW,232,0.8,3.5,65,0.00,CLR,,0.00,WeatherDisplay:10.37,2013-08-16 16:09:00,
2013-08-16 12:14:00,69.8,57.5,30.20,WNW,285,0.8,2.0,65,0.00,FEW,,0.00,WeatherDisplay:10.37,2013-08-16 16:14:00,
2013-08-16 12:19:00,70.0,57.7,30.21,NW,304,0.1,1.2,65,0.00,FEW,,0.00,WeatherDisplay:10.37,2013-08-16 16:19:00,
2013-08-16 12:24:00,70.2,58.7,30.20,North,11,0.3,1.2,67,0.00,FEW,,0.00,WeatherDisplay:10.37,2013-08-16 16:24:00,
2013-08-16 12:29:00,70.3,58.4,30.20,SE,127,0.0,1.2,66,0.00,FEW,,0.00,WeatherDisplay:10.37,2013-08-16 16:29:00,
2013-08-16 12:34:00,70.5,58.2,30.20,WSW,248,0.5,2.0,65,0.00,FEW,,0.00,WeatherDisplay:10.37,2013-08-16 16:34:00,
2013-08-16 12:39:00,70.3,58.4,30.20,West,274,0.0,1.2,66,0.00,FEW,,0.00,WeatherDisplay:10.37,2013-08-16 16:39:00,
2013-08-16 12:45:00,70.4,57.6,30.20,NNE,25,1.7,3.0,64,0.00,FEW,,0.00,WeatherDisplay:10.37,2013-08-16 16:45:00,
2013-08-16 12:50:00,70.5,57.3,30.20,West,264,1.7,3.5,63,0.00,FEW,,0.00,WeatherDisplay:10.37,2013-08-16 16:50:00,
2013-08-16 12:55:00,70.2,57.4,30.20,WSW,242,0.7,1.2,64,0.00,FEW,,0.00,WeatherDisplay:10.37,2013-08-16 16:55:00,
2013-08-16 13:00:00,70.2,57.9,30.20,SSW,204,0.5,2.0,65,0.00,FEW,,0.00,WeatherDisplay:10.37,2013-08-16 17:00:00,
2013-08-16 13:05:00,70.2,57.4,30.20,East,92,0.4,1.2,64,0.00,FEW,,0.00,WeatherDisplay:10.37,2013-08-16 17:05:00,
2013-08-16 13:10:00,69.7,56.5,30.19,NE,40,0.1,1.2,63,0.00,FEW,,0.00,WeatherDisplay:10.37,2013-08-16 17:10:00,
2013-08-16 13:15:00,69.8,57.9,30.19,SSE,164,0.6,1.2,66,0.00,FEW,,0.00,WeatherDisplay:10.37,2013-08-16 17:15:00,
2013-08-16 13:20:00,70.1,57.4,30.19,North,353,0.1,1.2,64,0.00,FEW,,0.00,WeatherDisplay:10.37,2013-08-16 17:20:00,
2013-08-16 13:25:00,70.5,58.2,30.19,SSW,197,0.1,1.2,65,0.00,FEW,,0.00,WeatherDisplay:10.37,2013-08-16 17:25:00,
2013-08-16 13:30:00,70.6,56.5,30.19,WSW,255,0.2,1.2,61,0.00,FEW,,0.00,WeatherDisplay:10.37,2013-08-16 17:30:00,
2013-08-16 13:35:00,71.4,58.1,30.19,WNW,293,0.0,0.0,63,0.00,FEW,,0.00,WeatherDisplay:10.37,2013-08-16 17:35:00,
2013-08-16 13:40:00,71.5,57.3,30.19,NW,318,0.2,1.2,61,0.00,FEW,,0.00,WeatherDisplay:10.37,2013-08-16 17:40:00,
2013-08-16 13:45:00,71.7,56.6,30.19,NNE,26,0.3,1.2,59,0.00,FEW,,0.00,WeatherDisplay:10.37,2013-08-16 17:45:00,
2013-08-16 13:50:00,71.9,58.2,30.19,East,87,0.4,1.2,62,0.00,FEW,,0.00,WeatherDisplay:10.37,2013-08-16 17:50:00,
2013-08-16 13:55:00,71.9,56.3,30.20,WNW,295,2.9,4.6,58,0.00,FEW,,0.00,WeatherDisplay:10.37,2013-08-16 17:55:00,
2013-08-16 14:00:00,71.7,58.4,30.19,WSW,258,0.6,1.2,63,0.00,SCT,,0.00,WeatherDisplay:10.37,2013-08-16 18:00:00,
2013-08-16 14:05:00,72.4,58.2,30.19,SE,141,0.4,1.2,61,0.00,SCT,,0.00,WeatherDisplay:10.37,2013-08-16 18:05:00,
2013-08-16 14:10:00,73.0,57.8,30.19,NNW,342,1.2,2.3,59,0.00,SCT,,0.00,WeatherDisplay:10.37,2013-08-16 18:10:00,
2013-08-16 14:15:00,73.2,57.1,30.19,ENE,62,0.3,2.3,57,0.00,SCT,,0.00,WeatherDisplay:10.37,2013-08-16 18:15:00,
2013-08-16 14:20:00,72.9,57.7,30.19,SW,228,2.5,5.0,59,0.00,SCT,,0.00,WeatherDisplay:10.37,2013-08-16 18:20:00,
2013-08-16 14:25:00,72.6,57.0,30.19,SSW,199,0.1,1.2,58,0.00,SCT,,0.00,WeatherDisplay:10.37,2013-08-16 18:25:00,
2013-08-16 14:30:00,72.6,55.5,30.19,WSW,238,2.1,3.5,55,0.00,SCT,,0.00,WeatherDisplay:10.37,2013-08-16 18:30:00,
2013-08-16 14:35:00,72.3,56.7,30.19,North,6,0.1,1.2,58,0.00,SCT,,0.00,WeatherDisplay:10.37,2013-08-16 18:35:00,
2013-08-16 14:40:00,73.4,58.7,30.19,South,174,0.1,1.2,60,0.00,SCT,,0.00,WeatherDisplay:10.37,2013-08-16 18:40:00,
2013-08-16 14:45:00,74.3,58.1,30.19,ESE,111,0.6,1.2,57,0.00,SCT,,0.00,WeatherDisplay:10.37,2013-08-16 18:45:00,
2013-08-16 14:50:00,74.1,57.9,30.19,ESE,110,1.3,3.5,57,0.00,SCT,,0.00,WeatherDisplay:10.37,2013-08-16 18:50:00,
2013-08-16 14:55:00,74.2,56.5,30.19,West,263,2.2,3.5,54,0.00,SCT,,0.00,WeatherDisplay:10.37,2013-08-16 18:55:00,
2013-08-16 15:00:00,73.1,56.0,30.19,WSW,245,1.3,3.0,55,0.00,SCT,,0.00,WeatherDisplay:10.37,2013-08-16 19:00:00,
2013-08-16 15:05:00,72.3,56.7,30.18,SSW,212,0.0,1.2,58,0.00,SCT,,0.00,WeatherDisplay:10.37,2013-08-16 19:05:00,
2013-08-16 15:10:00,72.8,56.2,30.18,NW,320,2.3,4.0,56,0.00,SCT,,0.00,WeatherDisplay:10.37,2013-08-16 19:10:00,
2013-08-16 15:15:00,73.2,56.6,30.18,WSW,249,1.3,3.5,56,0.00,SCT,,0.00,WeatherDisplay:10.37,2013-08-16 19:15:00,
2013-08-16 15:20:00,73.2,57.1,30.18,NNE,28,0.4,2.3,57,0.00,SCT,,0.00,WeatherDisplay:10.37,2013-08-16 19:20:00,
2013-08-16 15:25:00,74.3,58.1,30.17,WSW,245,0.1,1.0,57,0.00,SCT,,0.00,WeatherDisplay:10.37,2013-08-16 19:25:00,
2013-08-16 15:30:00,74.9,58.6,30.18,SE,126,0.5,1.2,57,0.00,SCT,,0.00,WeatherDisplay:10.37,2013-08-16 19:30:00,
2013-08-16 15:35:00,75.4,58.1,30.18,West,267,0.8,4.0,55,0.00,SCT,,0.00,WeatherDisplay:10.37,2013-08-16 19:35:00,
2013-08-16 15:40:00,75.2,57.4,30.18,ENE,58,1.0,2.3,54,0.00,SCT,,0.00,WeatherDisplay:10.37,2013-08-16 19:40:00,
2013-08-16 15:45:00,74.4,56.7,30.18,NE,39,1.2,2.3,54,0.00,SCT,,0.00,WeatherDisplay:10.37,2013-08-16 19:45:00,
2013-08-16 15:50:00,74.2,57.5,30.17,ENE,67,0.4,1.2,56,0.00,SCT,,0.00,WeatherDisplay:10.37,2013-08-16 19:50:00,
2013-08-16 15:55:00,74.5,57.8,30.17,NE,48,0.5,1.2,56,0.00,SCT,,0.00,WeatherDisplay:10.37,2013-08-16 19:55:00,
2013-08-16 16:00:00,75.0,58.7,30.17,SSE,147,0.5,1.2,57,0.00,SCT,,0.00,WeatherDisplay:10.37,2013-08-16 20:00:00,
2013-08-16 16:05:00,75.0,58.7,30.17,ESE,116,0.2,1.2,57,0.00,SCT,,0.00,WeatherDisplay:10.37,2013-08-16 20:05:00,
2013-08-16 16:10:00,74.6,58.4,30.17,ENE,62,1.1,2.3,57,0.00,SCT,,0.00,WeatherDisplay:10.37,2013-08-16 20:10:00,
2013-08-16 16:15:00,74.3,58.6,30.17,SSW,199,0.0,1.2,58,0.00,SCT,,0.00,WeatherDisplay:10.37,2013-08-16 20:15:00,
2013-08-16 16:20:00,74.8,57.5,30.17,SE,124,0.0,0.0,55,0.00,SCT,,0.00,WeatherDisplay:10.37,2013-08-16 20:20:00,
2013-08-16 16:25:00,75.0,55.6,30.17,West,263,2.5,3.5,51,0.00,SCT,,0.00,WeatherDisplay:10.37,2013-08-16 20:25:00,
2013-08-16 16:30:00,74.9,57.1,30.16,WNW,303,0.0,0.0,54,0.00,SCT,,0.00,WeatherDisplay:10.37,2013-08-16 20:30:00,
2013-08-16 16:35:00,76.1,57.2,30.16,East,84,0.5,1.2,52,0.00,SCT,,0.00,WeatherDisplay:10.37,2013-08-16 20:35:00,
2013-08-16 16:40:00,76.1,58.8,30.16,East,91,0.6,2.3,55,0.00,SCT,,0.00,WeatherDisplay:10.37,2013-08-16 20:40:00,
2013-08-16 16:45:00,76.7,58.8,30.17,SE,124,0.5,1.2,54,0.00,SCT,,0.00,WeatherDisplay:10.37,2013-08-16 20:45:00,
2013-08-16 16:50:00,76.3,57.4,30.17,NE,34,0.5,1.2,52,0.00,SCT,,0.00,WeatherDisplay:10.37,2013-08-16 20:50:00,
2013-08-16 16:55:00,76.0,58.2,30.17,NE,34,0.0,0.0,54,0.00,SCT,,0.00,WeatherDisplay:10.37,2013-08-16 20:55:00,
2013-08-16 17:00:00,75.7,57.4,30.17,WNW,290,1.6,2.3,53,0.00,SCT,,0.00,WeatherDisplay:10.37,2013-08-16 21:00:00,
2013-08-16 17:05:00,75.7,58.9,30.17,ESE,110,0.3,1.2,56,0.00,SCT,,0.00,WeatherDisplay:10.37,2013-08-16 21:05:00,
2013-08-16 17:10:00,76.2,58.9,30.17,West,259,0.1,1.2,55,0.00,SCT,,0.00,WeatherDisplay:10.37,2013-08-16 21:10:00,
2013-08-16 17:15:00,76.9,59.0,30.17,ENE,72,0.3,1.2,54,0.00,SCT,,0.00,WeatherDisplay:10.37,2013-08-16 21:15:00,
2013-08-16 17:20:00,76.5,57.6,30.17,NE,49,1.3,2.3,52,0.00,SCT,,0.00,WeatherDisplay:10.37,2013-08-16 21:20:00,
2013-08-16 17:25:00,75.8,57.4,30.17,ESE,109,0.2,1.2,53,0.00,SCT,,0.00,WeatherDisplay:10.37,2013-08-16 21:25:00,
2013-08-16 17:30:00,75.9,58.1,30.17,ESE,108,0.0,0.0,54,0.00,SCT,,0.00,WeatherDisplay:10.37,2013-08-16 21:30:00,
2013-08-16 17:35:00,76.4,59.5,30.17,WSW,242,0.2,1.2,56,0.00,SCT,,0.00,WeatherDisplay:10.37,2013-08-16 21:35:00,
2013-08-16 17:40:00,76.2,59.4,30.17,SE,141,0.3,1.2,56,0.00,SCT,,0.00,WeatherDisplay:10.37,2013-08-16 21:40:00,
2013-08-16 17:45:00,76.1,58.8,30.17,West,261,1.3,3.5,55,0.00,SCT,,0.00,WeatherDisplay:10.37,2013-08-16 21:45:00,
2013-08-16 17:50:00,75.9,59.1,30.17,NE,39,1.2,2.3,56,0.00,SCT,,0.00,WeatherDisplay:10.37,2013-08-16 21:50:00,
2013-08-16 17:55:00,76.0,58.7,30.17,West,260,0.0,0.0,55,0.00,SCT,,0.00,WeatherDisplay:10.37,2013-08-16 21:55:00,
2013-08-16 18:00:00,76.2,58.9,30.17,ESE,118,0.0,1.2,55,0.00,SCT,,0.00,WeatherDisplay:10.37,2013-08-16 22:00:00,
2013-08-16 18:05:00,76.5,59.1,30.17,NNW,330,0.0,1.0,55,0.00,SCT,,0.00,WeatherDisplay:10.37,2013-08-16 22:05:00,
2013-08-16 18:10:00,76.5,59.1,30.17,SSE,165,0.0,0.0,55,0.00,SCT,,0.00,WeatherDisplay:10.37,2013-08-16 22:10:00,
2013-08-16 18:15:00,77.2,58.7,30.17,WSW,258,0.0,0.0,53,0.00,SCT,,0.00,WeatherDisplay:10.37,2013-08-16 22:15:00,
2013-08-16 18:20:00,77.2,59.3,30.17,NNW,340,0.4,1.2,54,0.00,SCT,,0.00,WeatherDisplay:10.37,2013-08-16 22:20:00,
2013-08-16 18:25:00,76.8,59.4,30.17,NNW,338,0.1,1.2,55,0.00,SCT,,0.00,WeatherDisplay:10.37,2013-08-16 22:25:00,
2013-08-16 18:30:00,76.9,59.0,30.17,NNW,338,0.0,0.0,54,0.00,SCT,,0.00,WeatherDisplay:10.37,2013-08-16 22:30:00,
2013-08-16 18:35:00,76.9,59.0,30.17,WNW,288,0.0,0.0,54,0.00,SCT,,0.00,WeatherDisplay:10.37,2013-08-16 22:35:00,
2013-08-16 18:40:00,77.0,59.1,30.17,WSW,245,0.3,1.2,54,0.00,SCT,,0.00,WeatherDisplay:10.37,2013-08-16 22:40:00,
2013-08-16 18:45:00,76.1,58.8,30.17,NE,40,0.0,0.0,55,0.00,SCT,,0.00,WeatherDisplay:10.37,2013-08-16 22:45:00,
2013-08-16 18:50:00,76.2,59.4,30.17,WSW,250,0.0,0.0,56,0.00,SCT,,0.00,WeatherDisplay:10.37,2013-08-16 22:50:00,
2013-08-16 18:55:00,76.6,59.2,30.17,WSW,251,0.0,0.0,55,0.00,SCT,,0.00,WeatherDisplay:10.37,2013-08-16 22:55:00,
2013-08-16 19:00:00,76.7,59.3,30.17,WSW,256,0.0,0.0,55,0.00,SCT,,0.00,WeatherDisplay:10.37,2013-08-16 23:00:00,
2013-08-16 19:05:00,76.0,59.7,30.17,SSE,162,0.0,0.0,57,0.00,SCT,,0.00,WeatherDisplay:10.37,2013-08-16 23:05:00,
2013-08-16 19:10:00,75.6,59.3,30.17,West,269,0.7,2.3,57,0.00,SCT,,0.00,WeatherDisplay:10.37,2013-08-16 23:10:00,
2013-08-16 19:15:00,74.9,59.1,30.17,West,280,0.4,1.2,58,0.00,FEW,,0.00,WeatherDisplay:10.37,2013-08-16 23:15:00,
2013-08-16 19:20:00,74.6,59.8,30.17,West,279,0.0,0.0,60,0.00,FEW,,0.00,WeatherDisplay:10.37,2013-08-16 23:20:00,
2013-08-16 19:25:00,75.1,59.8,30.17,West,280,0.0,0.0,59,0.00,FEW,,0.00,WeatherDisplay:10.37,2013-08-16 23:25:00,
2013-08-16 19:30:00,75.1,59.8,30.17,West,278,0.0,0.0,59,0.00,FEW,,0.00,WeatherDisplay:10.37,2013-08-16 23:30:00,
2013-08-16 19:35:00,74.7,59.9,30.18,West,278,0.0,0.0,60,0.00,FEW,,0.00,WeatherDisplay:10.37,2013-08-16 23:35:00,
2013-08-16 19:40:00,72.7,59.4,30.18,West,271,0.1,1.2,63,0.00,FEW,,0.00,WeatherDisplay:10.37,2013-08-16 23:40:00,
2013-08-16 19:45:00,70.6,59.1,30.18,WSW,249,0.0,0.0,67,0.00,FEW,,0.00,WeatherDisplay:10.37,2013-08-16 23:45:00,
2013-08-16 19:50:00,69.3,58.7,30.18,WSW,248,0.0,0.0,69,0.00,FEW,,0.00,WeatherDisplay:10.37,2013-08-16 23:50:00,
2013-08-16 19:55:00,68.9,58.7,30.18,WSW,248,0.0,0.0,70,0.00,FEW,,0.00,WeatherDisplay:10.37,2013-08-16 23:55:00,
2013-08-16 20:00:00,69.0,58.4,30.18,WSW,248,0.0,0.0,69,0.00,CLR,,0.00,WeatherDisplay:10.37,2013-08-17 00:00:00,
2013-08-16 20:05:00,69.1,58.5,30.18,WSW,248,0.0,0.0,69,0.00,CLR,,0.00,WeatherDisplay:10.37,2013-08-17 00:05:00,
2013-08-16 20:10:00,68.7,58.5,30.18,WSW,248,0.0,0.0,70,0.00,CLR,,0.00,WeatherDisplay:10.37,2013-08-17 00:10:00,
2013-08-16 20:15:00,67.7,58.3,30.18,WSW,248,0.0,0.0,72,0.00,CLR,,0.00,WeatherDisplay:10.37,2013-08-17 00:15:00,
2013-08-16 20:20:00,66.6,58.4,30.18,WSW,248,0.0,0.0,75,0.00,CLR,,0.00,WeatherDisplay:10.37,2013-08-17 00:20:00,
2013-08-16 20:25:00,65.7,57.9,30.19,WSW,248,0.0,0.0,76,0.00,CLR,,0.00,WeatherDisplay:10.37,2013-08-17 00:25:00,
2013-08-16 20:30:00,65.5,57.7,30.19,WSW,248,0.0,0.0,76,0.00,CLR,,0.00,WeatherDisplay:10.37,2013-08-17 00:30:00,
2013-08-16 20:35:00,65.4,58.0,30.19,WSW,248,0.0,0.0,77,0.00,CLR,,0.00,WeatherDisplay:10.37,2013-08-17 00:35:00,
2013-08-16 20:40:00,65.3,57.9,30.20,WSW,248,0.0,0.0,77,0.00,CLR,,0.00,WeatherDisplay:10.37,2013-08-17 00:40:00,
2013-08-16 20:45:00,64.9,58.2,30.20,WSW,248,0.0,0.0,79,0.00,CLR,,0.00,WeatherDisplay:10.37,2013-08-17 00:45:00,
2013-08-16 20:50:00,64.2,57.2,30.20,WSW,248,0.0,0.0,78,0.00,CLR,,0.00,WeatherDisplay:10.37,2013-08-17 00:50:00,
2013-08-16 20:55:00,63.7,58.1,30.20,WSW,248,0.0,0.0,82,0.00,CLR,,0.00,WeatherDisplay:10.37,2013-08-17 00:55:00,
2013-08-16 21:00:00,63.3,57.0,30.20,WSW,248,0.0,0.0,80,0.00,CLR,,0.00,WeatherDisplay:10.37,2013-08-17 01:00:00,
2013-08-16 21:05:00,63.2,56.9,30.20,WSW,248,0.0,0.0,80,0.00,CLR,,0.00,WeatherDisplay:10.37,2013-08-17 01:05:00,
2013-08-16 21:10:00,63.0,57.4,30.20,WSW,248,0.0,0.0,82,0.00,CLR,,0.00,WeatherDisplay:10.37,2013-08-17 01:10:00,
2013-08-16 21:15:00,62.7,57.5,30.21,WSW,248,0.0,0.0,83,0.00,CLR,,0.00,WeatherDisplay:10.37,2013-08-17 01:15:00,
2013-08-16 21:20:00,62.2,57.3,30.22,WSW,248,0.0,0.0,84,0.00,CLR,,0.00,WeatherDisplay:10.37,2013-08-17 01:20:00,
2013-08-16 21:25:00,61.8,57.2,30.22,WSW,248,0.0,0.0,85,0.00,CLR,,0.00,WeatherDisplay:10.37,2013-08-17 01:25:00,
2013-08-16 21:30:00,61.5,57.3,30.22,WSW,248,0.0,0.0,86,0.00,CLR,,0.00,WeatherDisplay:10.37,2013-08-17 01:30:00,
2013-08-16 21:35:00,61.2,57.3,30.23,WSW,247,0.0,0.0,87,0.00,CLR,,0.00,WeatherDisplay:10.37,2013-08-17 01:35:00,
2013-08-16 21:40:00,61.0,56.8,30.23,WSW,248,0.0,0.0,86,0.00,CLR,,0.00,WeatherDisplay:10.37,2013-08-17 01:40:00,
2013-08-16 21:45:00,60.8,56.9,30.23,WSW,250,0.0,0.0,87,0.00,CLR,,0.00,WeatherDisplay:10.37,2013-08-17 01:45:00,
2013-08-16 21:50:00,60.7,56.8,30.24,WSW,246,0.0,0.0,87,0.00,CLR,,0.00,WeatherDisplay:10.37,2013-08-17 01:50:00,
2013-08-16 21:55:00,60.5,56.6,30.23,WSW,246,0.0,0.0,87,0.00,CLR,,0.00,WeatherDisplay:10.37,2013-08-17 01:55:00,
2013-08-16 22:00:00,60.4,56.5,30.23,WSW,246,0.0,0.0,87,0.00,CLR,,0.00,WeatherDisplay:10.37,2013-08-17 02:00:00,
2013-08-16 22:05:00,60.4,56.8,30.24,WSW,246,0.0,0.0,88,0.00,CLR,,0.00,WeatherDisplay:10.37,2013-08-17 02:05:00,
2013-08-16 22:10:00,60.3,56.4,30.24,WSW,246,0.0,0.0,87,0.00,CLR,,0.00,WeatherDisplay:10.37,2013-08-17 02:10:00,
2013-08-16 22:15:00,60.3,56.7,30.24,WSW,246,0.0,0.0,88,0.00,CLR,,0.00,WeatherDisplay:10.37,2013-08-17 02:15:00,
2013-08-16 22:20:00,60.2,56.9,30.24,WSW,246,0.0,0.0,89,0.00,CLR,,0.00,WeatherDisplay:10.37,2013-08-17 02:20:00,
2013-08-16 22:25:00,60.0,56.7,30.24,WSW,246,0.0,0.0,89,0.00,CLR,,0.00,WeatherDisplay:10.37,2013-08-17 02:25:00,
2013-08-16 22:30:00,59.9,56.6,30.24,WSW,246,0.0,0.0,89,0.00,CLR,,0.00,WeatherDisplay:10.37,2013-08-17 02:30:00,
2013-08-16 22:35:00,59.7,56.5,30.24,WSW,246,0.0,0.0,89,0.00,CLR,,0.00,WeatherDisplay:10.37,2013-08-17 02:35:00,
2013-08-16 22:40:00,59.4,56.5,30.24,WSW,245,0.0,0.0,90,0.00,CLR,,0.00,WeatherDisplay:10.37,2013-08-17 02:40:00,
2013-08-16 22:45:00,59.3,56.1,30.23,WSW,246,0.0,0.0,89,0.00,CLR,,0.00,WeatherDisplay:10.37,2013-08-17 02:45:00,
2013-08-16 22:50:00,59.2,56.0,30.23,WSW,246,0.0,0.0,89,0.00,CLR,,0.00,WeatherDisplay:10.37,2013-08-17 02:50:00,
2013-08-16 22:55:00,59.1,56.2,30.24,WSW,246,0.0,0.0,90,0.00,CLR,,0.00,WeatherDisplay:10.37,2013-08-17 02:55:00,
2013-08-16 23:00:00,59.0,56.1,30.24,WSW,246,0.0,0.0,90,0.00,CLR,,0.00,WeatherDisplay:10.37,2013-08-17 03:00:00,
2013-08-16 23:05:00,58.8,55.9,30.24,WSW,246,0.0,0.0,90,0.00,CLR,,0.00,WeatherDisplay:10.37,2013-08-17 03:05:00,
2013-08-16 23:10:00,58.6,55.7,30.24,WSW,246,0.0,0.0,90,0.00,CLR,,0.00,WeatherDisplay:10.37,2013-08-17 03:10:00,
2013-08-16 23:15:00,58.4,55.8,30.24,WSW,246,0.0,0.0,91,0.00,CLR,,0.00,WeatherDisplay:10.37,2013-08-17 03:15:00,
2013-08-16 23:20:00,58.3,55.7,30.24,WSW,246,0.0,0.0,91,0.00,CLR,,0.00,WeatherDisplay:10.37,2013-08-17 03:20:00,
2013-08-16 23:25:00,58.2,55.6,30.24,WSW,245,0.0,0.0,91,0.00,CLR,,0.00,WeatherDisplay:10.37,2013-08-17 03:25:00,
2013-08-16 23:30:00,58.1,55.5,30.23,WSW,246,0.0,0.0,91,0.00,CLR,,0.00,WeatherDisplay:10.37,2013-08-17 03:30:00,
2013-08-16 23:35:00,58.0,55.4,30.23,SW,235,0.1,1.2,91,0.00,CLR,,0.00,WeatherDisplay:10.37,2013-08-17 03:35:00,
2013-08-16 23:40:00,57.9,55.6,30.23,SW,234,0.0,0.0,92,0.00,CLR,,0.00,WeatherDisplay:10.37,2013-08-17 03:40:00,
2013-08-16 23:45:00,57.8,55.5,30.24,SW,235,0.0,0.0,92,0.00,CLR,,0.00,WeatherDisplay:10.37,2013-08-17 03:45:00,
2013-08-16 23:50:00,57.8,55.5,30.24,SW,235,0.0,0.0,92,0.00,CLR,,0.00,WeatherDisplay:10.37,2013-08-17 03:50:00,
2013-08-16 23:55:00,57.7,55.4,30.23,SW,235,0.0,0.0,92,0.00,CLR,,0.00,WeatherDisplay:10.37,2013-08-17 03:55:00,